createdAt,value
2023-03-03T00:01:15.515Z,10.18
2023-03-03T00:03:42.609Z,10.50
2023-03-03T00:06:11.750Z,10.60
2023-03-03T00:08:38.687Z,10.10
2023-03-03T00:11:07.953Z,10.30
2023-03-03T00:13:55.696Z,10.40
2023-03-03T00:16:28.066Z,9.15
2023-03-03T00:18:55.397Z,8.95
2023-03-03T00:21:42.983Z,11.00
2023-03-03T00:24:24.839Z,9.25
2023-03-03T00:26:57.777Z,9.80
2023-03-03T00:29:29.477Z,10.30
2023-03-03T00:34:31.800Z,9.93
2023-03-03T00:36:58.372Z,9.90
2023-03-03T00:39:31.268Z,10.65
2023-03-03T00:42:00.533Z,11.63
2023-03-03T00:44:56.274Z,9.90
2023-03-03T00:47:31.467Z,8.85
2023-03-03T00:50:18.285Z,9.60
2023-03-03T00:52:52.887Z,10.50
2023-03-03T00:55:19.537Z,9.77
2023-03-03T00:57:46.759Z,9.65
2023-03-03T01:00:15.077Z,9.32
2023-03-03T01:02:41.683Z,9.27
2023-03-03T01:05:12.993Z,10.02
2023-03-03T01:07:39.947Z,9.60
2023-03-03T01:10:07.170Z,9.70
2023-03-03T01:12:34.557Z,8.88
2023-03-03T01:15:01.221Z,9.65
2023-03-03T01:17:28.915Z,10.75
2023-03-03T01:19:56.762Z,9.40
2023-03-03T01:22:23.442Z,9.68
2023-03-03T01:24:50.354Z,9.30
2023-03-03T01:27:17.093Z,9.43
2023-03-03T01:29:43.843Z,9.07
2023-03-03T01:32:10.660Z,9.98
2023-03-03T01:34:37.182Z,10.00
2023-03-03T01:37:04.521Z,11.40
2023-03-03T01:39:31.043Z,10.07
2023-03-03T01:41:57.885Z,11.60
2023-03-03T01:44:24.487Z,10.48
2023-03-03T01:47:06.225Z,11.38
2023-03-03T01:49:58.557Z,9.55
2023-03-03T01:52:30.440Z,9.82
2023-03-03T01:57:35.483Z,10.00
2023-03-03T02:00:05.695Z,9.95
2023-03-03T02:02:40.146Z,9.70
2023-03-03T02:05:07.642Z,10.10
2023-03-03T02:07:35.649Z,9.30
2023-03-03T02:10:05.717Z,10.02
2023-03-03T02:12:36.157Z,9.57
2023-03-03T02:15:16.385Z,9.48
2023-03-03T02:17:43.473Z,9.98
2023-03-03T02:20:20.578Z,10.02
2023-03-03T02:22:57.282Z,10.20
2023-03-03T02:25:58.602Z,9.48
2023-03-03T02:28:29.958Z,8.95
2023-03-03T02:30:58.163Z,10.15
2023-03-03T02:33:26.482Z,11.80
2023-03-03T02:35:53.324Z,10.68
2023-03-03T02:38:35.304Z,11.05
2023-03-03T02:41:31.056Z,10.30
2023-03-03T02:44:05.630Z,9.73
2023-03-03T02:46:38.867Z,10.20
2023-03-03T02:49:08.677Z,10.48
2023-03-03T02:51:36.946Z,10.25
2023-03-03T02:54:05.550Z,9.52
2023-03-03T02:56:33.181Z,9.80
2023-03-03T02:59:00.146Z,10.80
2023-03-03T03:01:28.295Z,10.13
2023-03-03T03:03:54.993Z,10.23
2023-03-03T03:06:23.165Z,11.35
2023-03-03T03:08:49.954Z,10.13
2023-03-03T03:11:16.778Z,9.10
2023-03-03T03:13:44.955Z,9.95
2023-03-03T03:16:12.818Z,10.52
2023-03-03T03:18:39.851Z,11.10
2023-03-03T03:21:11.467Z,10.73
2023-03-03T03:23:40.428Z,9.90
2023-03-03T03:26:07.778Z,9.30
2023-03-03T03:28:34.984Z,9.43
2023-03-03T03:31:02.962Z,9.38
2023-03-03T03:33:29.795Z,10.07
2023-03-03T03:35:58.597Z,8.93
2023-03-03T03:38:27.121Z,9.50
2023-03-03T03:40:55.019Z,9.50
2023-03-03T03:43:22.778Z,8.85
2023-03-03T03:45:49.743Z,9.00
2023-03-03T03:48:17.620Z,9.38
2023-03-03T03:50:47.818Z,9.27
2023-03-03T03:53:16.088Z,9.68
2023-03-03T03:55:42.995Z,9.70
2023-03-03T03:58:13.959Z,9.05
2023-03-03T04:00:42.360Z,10.07
2023-03-03T04:03:10.962Z,9.13
2023-03-03T04:05:38.059Z,9.57
2023-03-03T04:08:06.377Z,9.00
2023-03-03T04:10:33.575Z,10.00
2023-03-03T04:13:00.317Z,10.00
2023-03-03T04:15:27.108Z,9.15
2023-03-03T04:17:54.673Z,9.98
2023-03-03T04:20:21.345Z,9.38
2023-03-03T04:22:48.621Z,10.07
2023-03-03T04:25:16.951Z,8.45
2023-03-03T04:27:45.636Z,10.68
2023-03-03T04:30:15.872Z,9.27
2023-03-03T04:32:45.741Z,9.25
2023-03-03T04:35:13.408Z,9.10
2023-03-03T04:37:43.168Z,8.75
2023-03-03T04:40:12.019Z,9.50
2023-03-03T04:42:40.238Z,9.35
2023-03-03T04:45:09.158Z,10.02
2023-03-03T04:47:36.422Z,8.27
2023-03-03T04:50:03.564Z,9.30
2023-03-03T04:52:32.261Z,9.55
2023-03-03T04:54:59.292Z,8.95
2023-03-03T04:57:26.886Z,8.82
2023-03-03T04:59:54.359Z,9.23
2023-03-03T05:02:21.286Z,10.20
2023-03-03T05:04:48.266Z,10.80
2023-03-03T05:07:14.846Z,10.23
2023-03-03T05:09:41.790Z,9.40
2023-03-03T05:12:08.455Z,9.10
2023-03-03T05:14:35.102Z,9.80
2023-03-03T05:17:03.394Z,9.43
2023-03-03T05:19:30.178Z,9.73
2023-03-03T05:21:57.579Z,9.00
2023-03-03T05:24:24.413Z,8.57
2023-03-03T05:26:51.032Z,9.38
2023-03-03T05:29:17.831Z,10.77
2023-03-03T05:31:45.762Z,8.48
2023-03-03T05:34:12.507Z,10.10
2023-03-03T05:36:39.141Z,9.82
2023-03-03T05:39:05.925Z,9.13
2023-03-03T05:41:32.700Z,10.82
2023-03-03T05:43:59.336Z,10.85
2023-03-03T05:46:26.208Z,9.55
2023-03-03T05:48:52.918Z,10.20
2023-03-03T05:51:19.775Z,10.38
2023-03-03T05:53:46.346Z,10.15
2023-03-03T05:56:12.887Z,9.88
2023-03-03T05:58:39.440Z,9.23
2023-03-03T06:01:06.157Z,10.07
2023-03-03T06:03:33.476Z,9.20
2023-03-03T06:06:00.150Z,9.90
2023-03-03T06:08:26.902Z,8.07
2023-03-03T06:10:53.698Z,9.73
2023-03-03T06:13:20.616Z,9.27
2023-03-03T06:15:47.195Z,9.98
2023-03-03T06:18:13.932Z,7.88
2023-03-03T06:20:40.459Z,9.13
2023-03-03T06:23:07.194Z,9.65
2023-03-03T06:25:35.875Z,9.48
2023-03-03T06:28:03.909Z,9.48
2023-03-03T06:30:30.783Z,9.30
2023-03-03T06:32:57.599Z,9.48
2023-03-03T06:35:24.478Z,8.65
2023-03-03T06:37:51.856Z,10.05
2023-03-03T06:40:18.604Z,9.90
2023-03-03T06:42:45.964Z,10.50
2023-03-03T06:45:12.946Z,10.88
2023-03-03T06:47:39.778Z,9.93
2023-03-03T06:50:07.228Z,10.90
2023-03-03T06:52:34.151Z,9.40
2023-03-03T06:55:09.810Z,12.15
2023-03-03T06:57:37.032Z,10.80
2023-03-03T07:00:18.372Z,10.35
2023-03-03T07:02:45.008Z,11.95
2023-03-03T07:05:17.893Z,11.60
2023-03-03T07:07:45.010Z,12.30
2023-03-03T07:10:27.882Z,10.90
2023-03-03T07:12:58.368Z,12.30
2023-03-03T07:15:32.832Z,14.07
2023-03-03T07:18:00.052Z,13.38
2023-03-03T07:20:35.197Z,12.23
2023-03-03T07:23:18.730Z,13.35
2023-03-03T07:25:46.649Z,11.73
2023-03-03T07:28:29.502Z,13.05
2023-03-03T07:30:58.026Z,14.02
2023-03-03T07:33:35.190Z,13.55
2023-03-03T07:36:03.723Z,12.68
2023-03-03T07:38:49.615Z,12.60
2023-03-03T07:41:20.853Z,13.02
2023-03-03T07:44:06.463Z,13.70
2023-03-03T07:46:52.657Z,12.95
2023-03-03T07:49:23.656Z,13.32
2023-03-03T07:51:57.349Z,12.45
2023-03-03T07:54:35.994Z,14.40
2023-03-03T07:57:21.023Z,13.48
2023-03-03T07:59:52.247Z,12.98
2023-03-03T08:03:04.111Z,14.85
2023-03-03T08:05:35.958Z,12.35
2023-03-03T08:08:26.925Z,15.25
2023-03-03T08:10:55.487Z,13.00
2023-03-03T08:13:43.103Z,12.73
2023-03-03T08:16:09.722Z,13.93
2023-03-03T08:18:39.988Z,13.63
2023-03-03T08:21:26.300Z,15.02
2023-03-03T08:23:53.753Z,14.05
2023-03-03T08:26:22.192Z,14.75
2023-03-03T08:28:49.504Z,13.88
2023-03-03T08:31:27.988Z,12.18
2023-03-03T08:34:04.626Z,14.75
2023-03-03T08:36:33.642Z,14.35
2023-03-03T08:39:01.971Z,13.30
2023-03-03T08:41:28.674Z,13.68
2023-03-03T08:43:55.186Z,15.48
2023-03-03T08:46:21.988Z,14.02
2023-03-03T08:48:49.872Z,15.05
2023-03-03T08:51:16.536Z,14.48
2023-03-03T08:53:43.156Z,14.07
2023-03-03T08:56:10.646Z,13.25
2023-03-03T08:58:37.533Z,15.85
2023-03-03T09:01:04.922Z,14.63
2023-03-03T09:03:31.786Z,13.95
2023-03-03T09:05:58.418Z,14.52
2023-03-03T09:08:25.141Z,13.23
2023-03-03T09:10:51.866Z,16.13
2023-03-03T09:13:19.804Z,12.80
2023-03-03T09:15:47.669Z,15.50
2023-03-03T09:18:18.876Z,15.13
2023-03-03T09:20:45.516Z,15.75
2023-03-03T09:23:31.124Z,15.30
2023-03-03T09:26:11.664Z,13.93
2023-03-03T09:28:38.211Z,15.68
2023-03-03T09:31:22.211Z,13.10
2023-03-03T09:33:55.129Z,14.52
2023-03-03T09:36:38.584Z,14.82
2023-03-03T09:39:31.985Z,15.82
2023-03-03T09:42:07.638Z,16.17
2023-03-03T09:44:37.122Z,14.98
2023-03-03T09:47:06.656Z,15.45
2023-03-03T09:49:36.355Z,14.02
2023-03-03T09:52:16.291Z,15.00
2023-03-03T09:55:00.928Z,15.32
2023-03-03T09:57:36.292Z,13.38
2023-03-03T10:00:15.997Z,15.35
2023-03-03T10:03:08.692Z,15.27
2023-03-03T10:05:55.585Z,14.07
2023-03-03T10:08:37.124Z,14.80
2023-03-03T10:11:22.704Z,14.80
2023-03-03T10:14:20.481Z,15.43
2023-03-03T10:16:56.501Z,14.88
2023-03-03T10:19:38.512Z,14.63
2023-03-03T10:24:59.652Z,15.43
2023-03-03T10:27:45.752Z,14.65
2023-03-03T10:30:38.953Z,13.40
2023-03-03T10:33:22.544Z,14.73
2023-03-03T10:36:08.704Z,14.82
2023-03-03T10:38:55.720Z,13.95
2023-03-03T10:41:55.184Z,15.07
2023-03-03T10:44:38.600Z,14.93
2023-03-03T10:47:44.374Z,15.57
2023-03-03T10:50:28.204Z,14.45
2023-03-03T10:53:27.447Z,16.15
2023-03-03T10:56:11.136Z,15.45
2023-03-03T10:58:40.744Z,14.63
2023-03-03T11:01:25.593Z,15.05
2023-03-03T11:04:01.277Z,15.27
2023-03-03T11:06:58.810Z,15.18
2023-03-03T11:10:01.229Z,14.93
2023-03-03T11:12:51.617Z,13.88
2023-03-03T11:15:44.825Z,13.93
2023-03-03T11:18:42.573Z,15.48
2023-03-03T11:21:27.944Z,16.85
2023-03-03T11:24:00.847Z,14.98
2023-03-03T11:26:41.884Z,15.10
2023-03-03T11:29:45.495Z,16.10
2023-03-03T11:32:36.937Z,15.10
2023-03-03T11:35:44.123Z,15.45
2023-03-03T11:38:19.605Z,15.32
2023-03-03T11:40:53.670Z,15.63
2023-03-03T11:43:37.754Z,14.88
2023-03-03T11:46:13.098Z,16.23
2023-03-03T11:49:01.954Z,15.20
2023-03-03T11:51:34.202Z,15.30
2023-03-03T11:54:24.004Z,14.93
2023-03-03T11:56:54.750Z,15.55
2023-03-03T11:59:39.323Z,14.38
2023-03-03T12:02:27.182Z,15.68
2023-03-03T12:05:04.948Z,16.08
2023-03-03T12:08:14.202Z,15.23
2023-03-03T12:10:59.490Z,16.92
2023-03-03T12:13:39.676Z,15.73
2023-03-03T12:16:15.981Z,15.23
2023-03-03T12:19:01.587Z,14.90
2023-03-03T12:21:37.001Z,16.45
2023-03-03T12:24:06.678Z,14.55
2023-03-03T12:27:08.606Z,16.08
2023-03-03T12:30:20.097Z,14.13
2023-03-03T12:33:08.285Z,15.67
2023-03-03T12:35:50.518Z,14.50
2023-03-03T12:38:44.915Z,15.95
2023-03-03T12:41:33.315Z,15.20
2023-03-03T12:44:03.147Z,16.63
2023-03-03T12:46:32.737Z,15.75
2023-03-03T12:48:59.353Z,15.20
2023-03-03T12:52:01.311Z,16.45
2023-03-03T12:54:39.353Z,14.77
2023-03-03T12:57:27.470Z,15.82
2023-03-03T13:00:15.985Z,16.55
2023-03-03T13:03:05.610Z,14.98
2023-03-03T13:05:50.903Z,14.10
2023-03-03T13:08:39.172Z,14.68
2023-03-03T13:11:29.002Z,15.77
2023-03-03T13:14:19.122Z,16.10
2023-03-03T13:16:58.989Z,16.35
2023-03-03T13:19:42.721Z,15.15
2023-03-03T13:22:18.005Z,14.80
2023-03-03T13:24:44.701Z,15.77
2023-03-03T13:27:19.098Z,15.35
2023-03-03T13:30:19.621Z,15.13
2023-03-03T13:33:07.342Z,15.60
2023-03-03T13:35:42.950Z,16.10
2023-03-03T13:38:13.903Z,15.50
2023-03-03T13:40:45.288Z,15.80
2023-03-03T13:43:24.128Z,14.35
2023-03-03T13:46:14.939Z,16.00
2023-03-03T13:48:52.183Z,17.10
2023-03-03T13:51:46.739Z,13.43
2023-03-03T13:54:19.212Z,15.65
2023-03-03T13:56:48.509Z,14.00
2023-03-03T13:59:32.065Z,15.00
2023-03-03T14:02:16.779Z,15.18
2023-03-03T14:05:31.540Z,16.27
2023-03-03T14:08:07.578Z,14.98
2023-03-03T14:10:57.060Z,14.88
2023-03-03T14:13:55.928Z,14.05
2023-03-03T14:16:28.719Z,14.43
2023-03-03T14:19:02.416Z,14.52
2023-03-03T14:21:36.611Z,14.90
2023-03-03T14:24:17.088Z,14.60
2023-03-03T14:26:55.970Z,14.95
2023-03-03T14:29:28.883Z,15.35
2023-03-03T14:32:01.968Z,16.85
2023-03-03T14:34:40.087Z,16.52
2023-03-03T14:37:29.984Z,16.02
2023-03-03T14:40:17.184Z,15.70
2023-03-03T14:42:52.702Z,15.13
2023-03-03T14:45:40.114Z,16.08
2023-03-03T14:48:23.718Z,15.45
2023-03-03T14:50:53.932Z,15.60
2023-03-03T14:53:42.514Z,17.10
2023-03-03T14:56:23.738Z,15.07
2023-03-03T14:58:54.298Z,14.65
2023-03-03T15:01:30.564Z,14.88
2023-03-03T15:03:57.416Z,16.17
2023-03-03T15:06:51.639Z,14.18
2023-03-03T15:09:24.401Z,15.80
2023-03-03T15:11:53.238Z,14.90
2023-03-03T15:14:23.123Z,15.43
2023-03-03T15:16:49.762Z,15.57
2023-03-03T15:19:38.175Z,14.90
2023-03-03T15:22:20.291Z,15.63
2023-03-03T15:25:09.033Z,16.55
2023-03-03T15:27:41.886Z,15.52
2023-03-03T15:30:24.905Z,15.02
2023-03-03T15:33:03.151Z,15.95
2023-03-03T15:35:48.255Z,14.15
2023-03-03T15:38:17.911Z,15.00
2023-03-03T15:41:06.427Z,16.95
2023-03-03T15:43:51.130Z,14.90
2023-03-03T15:46:25.710Z,15.52
2023-03-03T15:49:11.382Z,15.52
2023-03-03T15:52:03.399Z,15.75
2023-03-03T15:54:44.911Z,15.43
2023-03-03T15:57:21.921Z,13.82
2023-03-03T15:59:59.379Z,16.83
2023-03-03T16:02:49.132Z,15.27
2023-03-03T16:05:33.341Z,16.90
2023-03-03T16:08:00.089Z,17.50
2023-03-03T16:10:46.424Z,16.20
2023-03-03T16:13:46.983Z,16.92
2023-03-03T16:16:19.513Z,15.40
2023-03-03T16:18:58.522Z,16.98
2023-03-03T16:21:47.631Z,15.60
2023-03-03T16:24:47.946Z,16.58
2023-03-03T16:27:32.753Z,16.52
2023-03-03T16:30:30.135Z,16.23
2023-03-03T16:33:08.879Z,18.90
2023-03-03T16:35:46.671Z,17.65
2023-03-03T16:38:19.617Z,15.15
2023-03-03T16:40:59.777Z,17.00
2023-03-03T16:43:32.418Z,15.63
2023-03-03T16:46:42.212Z,16.10
2023-03-03T16:49:27.190Z,14.43
2023-03-03T16:51:59.654Z,14.88
2023-03-03T16:54:54.236Z,15.10
2023-03-03T16:57:48.944Z,14.43
2023-03-03T17:00:29.490Z,16.13
2023-03-03T17:03:05.236Z,16.70
2023-03-03T17:05:54.448Z,16.23
2023-03-03T17:08:33.313Z,15.30
2023-03-03T17:11:25.522Z,14.27
2023-03-03T17:14:01.805Z,13.02
2023-03-03T17:16:49.804Z,13.30
2023-03-03T17:19:40.480Z,15.27
2023-03-03T17:22:27.575Z,15.18
2023-03-03T17:25:17.498Z,13.48
2023-03-03T17:28:02.399Z,14.77
2023-03-03T17:30:39.099Z,14.90
2023-03-03T17:34:02.904Z,16.40
2023-03-03T17:36:46.267Z,11.95
2023-03-03T17:39:27.504Z,11.82
2023-03-03T17:42:12.074Z,14.52
2023-03-03T17:44:50.690Z,13.93
2023-03-03T17:48:11.126Z,14.05
2023-03-03T17:50:43.838Z,12.60
2023-03-03T17:53:15.923Z,11.45
2023-03-03T17:55:48.341Z,12.63
2023-03-03T17:58:55.576Z,13.75
2023-03-03T18:01:59.147Z,14.00
2023-03-03T18:04:34.720Z,15.18
2023-03-03T18:07:14.505Z,14.95
2023-03-03T18:10:14.191Z,16.25
2023-03-03T18:12:47.347Z,17.02
2023-03-03T18:15:33.106Z,18.92
2023-03-03T18:18:21.657Z,18.13
2023-03-03T18:21:09.562Z,16.95
2023-03-03T18:23:47.374Z,17.35
2023-03-03T18:26:35.095Z,17.08
2023-03-03T18:29:13.645Z,16.95
2023-03-03T18:31:45.861Z,16.83
2023-03-03T18:34:21.704Z,16.40
2023-03-03T18:36:53.365Z,16.30
2023-03-03T18:39:50.244Z,16.83
2023-03-03T18:42:16.745Z,15.50
2023-03-03T18:44:44.652Z,14.68
2023-03-03T18:47:11.924Z,14.65
2023-03-03T18:50:07.766Z,15.90
2023-03-03T18:52:35.238Z,17.05
2023-03-03T18:55:23.672Z,16.48
2023-03-03T18:58:28.447Z,15.32
2023-03-03T19:00:57.030Z,15.55
2023-03-03T19:03:46.861Z,17.15
2023-03-03T19:06:32.950Z,14.70
2023-03-03T19:08:59.611Z,16.85
2023-03-03T19:11:44.890Z,18.33
2023-03-03T19:14:17.465Z,15.88
2023-03-03T19:16:45.366Z,15.23
2023-03-03T19:19:14.879Z,16.13
2023-03-03T19:21:43.465Z,15.75
2023-03-03T19:24:16.722Z,16.30
2023-03-03T19:26:51.816Z,15.07
2023-03-03T19:29:36.839Z,16.48
2023-03-03T19:32:31.108Z,16.88
2023-03-03T19:35:20.143Z,14.02
2023-03-03T19:37:58.984Z,15.30
2023-03-03T19:40:37.023Z,16.20
2023-03-03T19:43:22.335Z,15.63
2023-03-03T19:46:19.709Z,16.85
2023-03-03T19:48:52.380Z,16.83
2023-03-03T19:51:45.460Z,16.25
2023-03-03T19:54:23.446Z,15.45
2023-03-03T19:56:54.807Z,16.13
2023-03-03T19:59:37.401Z,14.75
2023-03-03T20:02:28.986Z,15.75
2023-03-03T20:05:20.103Z,15.25
2023-03-03T20:07:54.790Z,14.02
2023-03-03T20:10:45.962Z,13.13
2023-03-03T20:13:42.299Z,14.38
2023-03-03T20:16:24.460Z,17.08
2023-03-03T20:19:29.227Z,15.52
2023-03-03T20:22:11.086Z,14.00
2023-03-03T20:27:19.919Z,13.70
2023-03-03T20:30:16.837Z,14.68
2023-03-03T20:33:18.128Z,16.35
2023-03-03T20:36:04.964Z,15.25
2023-03-03T20:38:43.653Z,15.43
2023-03-03T20:41:41.501Z,15.65
2023-03-03T20:44:17.218Z,15.18
2023-03-03T20:46:52.990Z,16.92
2023-03-03T20:49:22.489Z,18.02
2023-03-03T20:51:58.524Z,17.13
2023-03-03T20:54:37.620Z,17.38
2023-03-03T20:57:34.062Z,20.27
2023-03-03T21:00:03.585Z,19.23
2023-03-03T21:02:45.393Z,19.08
2023-03-03T21:05:18.658Z,16.45
2023-03-03T21:08:03.103Z,17.38
2023-03-03T21:10:35.465Z,16.48
2023-03-03T21:13:34.131Z,15.68
2023-03-03T21:16:10.868Z,15.82
2023-03-03T21:18:37.981Z,17.77
2023-03-03T21:21:05.346Z,18.55
2023-03-03T21:23:32.127Z,16.92
2023-03-03T21:25:58.882Z,18.92
2023-03-03T21:28:27.448Z,18.20
2023-03-03T21:31:07.976Z,20.58
2023-03-03T21:33:55.876Z,18.35
2023-03-03T21:36:47.350Z,18.23
2023-03-03T21:39:30.771Z,19.08
2023-03-03T21:41:57.435Z,16.55
2023-03-03T21:44:37.583Z,18.17
2023-03-03T21:47:07.335Z,16.85
2023-03-03T21:49:34.400Z,18.20
2023-03-03T21:52:02.045Z,17.45
2023-03-03T21:54:29.491Z,16.80
2023-03-03T21:56:56.223Z,15.20
2023-03-03T21:59:23.334Z,15.23
2023-03-03T22:01:49.929Z,15.60
2023-03-03T22:04:16.774Z,17.05
2023-03-03T22:06:43.887Z,14.27
2023-03-03T22:09:11.046Z,15.57
2023-03-03T22:11:39.589Z,15.02
2023-03-03T22:14:07.243Z,15.10
2023-03-03T22:16:34.660Z,15.73
2023-03-03T22:19:02.772Z,15.57
2023-03-03T22:21:30.101Z,16.23
2023-03-03T22:23:57.544Z,16.33
2023-03-03T22:26:24.427Z,15.55
2023-03-03T22:28:50.979Z,17.45
2023-03-03T22:31:19.158Z,16.30
2023-03-03T22:33:47.462Z,17.35
2023-03-03T22:36:15.412Z,14.82
2023-03-03T22:38:42.266Z,15.35
2023-03-03T22:41:09.358Z,16.80
2023-03-03T22:43:36.112Z,17.17
2023-03-03T22:46:02.891Z,17.38
2023-03-03T22:48:30.929Z,16.88
2023-03-03T22:50:57.875Z,17.13
2023-03-03T22:53:25.718Z,18.67
2023-03-03T22:55:53.322Z,18.23
2023-03-03T22:58:20.610Z,17.70
2023-03-03T23:00:48.647Z,20.33
2023-03-03T23:03:15.722Z,18.27
2023-03-03T23:05:43.315Z,16.42
2023-03-03T23:08:13.351Z,17.38
2023-03-03T23:10:40.515Z,15.73
2023-03-03T23:13:08.575Z,15.85
2023-03-03T23:15:35.468Z,16.73
2023-03-03T23:18:02.925Z,16.10
2023-03-03T23:20:31.846Z,16.15
2023-03-03T23:22:58.948Z,17.80
2023-03-03T23:25:25.790Z,20.85
2023-03-03T23:27:53.827Z,18.35
2023-03-03T23:30:22.203Z,20.67
2023-03-03T23:32:49.312Z,17.70
2023-03-03T23:35:16.828Z,19.42
2023-03-03T23:37:43.543Z,17.17
2023-03-03T23:40:11.064Z,19.20
2023-03-03T23:42:37.726Z,16.58
2023-03-03T23:45:05.027Z,19.05
2023-03-03T23:47:31.590Z,17.40
2023-03-03T23:49:58.288Z,17.17
2023-03-03T23:52:25.092Z,16.02
2023-03-03T23:54:53.136Z,17.25
2023-03-03T23:57:20.172Z,16.27
2023-03-03T23:59:46.958Z,15.80
